Wednesday, October 22, 2014
12:22 UTC
  |  Log In   |  Register Free
Airport Search:

Northeast Philadelphia Airport
(KPNE)

FAA data valid effective September 18, 2014 - November 13, 2014 (unless otherwise noted).

 
 
 
 
 
 
 
 
 
 
 
 
 
 

Current Aviation Weather for Northeast Philadelphia Airport (KPNE)

The most recent METAR observation for KPNE was updated at: 1221
METAR Summary (Translated METAR)
KPNE
221154Z 02014KT 6SM -RA SCT011 BKN032 OVC075 14/11 A2989 RMK AO2 RAB03 SLP121 P0003 60005 70005 T01390111 10139 20133 $
KVAY
221105Z AUTO 03008KT 10SM -RA FEW008 OVC070 13/11 A2985 RMK AO2 P0000 T01280111
(11.3 nm SE from KPNE)
KLOM
221155Z AUTO 01003KT 5SM OVC013 13/11 A2988 RMK AO1 P0001
(12.1 nm NW from KPNE)
TAF Summary (Translated TAF)
KPNE
220709Z 2207/2306 03012KT 6SM -RA BKN015 FM221100 03012KT 4SM -RA BR SCT007 OVC015 FM221500 03012G20KT 4SM RA BR OVC012 FM222100 35016G25KT 6SM -RA BKN020 FM230200 35017KT P6SM OVC025
  Airport Weather Conditions for KPNE

 Current Weather at PNE
57° F
Light Rain
North winds at 16.1 mph
PNE NOAA Radar

Pressure: 29.89 in
Humidity: 83%
Wind: North at 16.1 MPH (14 KT)
Dew Point: 52.0°F
Visibility: 6.00 mi


Airport Weather Forecast for KPNE

Translated METAR and TAF for KPNE
Translated METAR for KPNE (1217 UTC 22 October 2014)
found at http://aviationweather.gov/adds/metars/
 
METAR text: KPNE 221154Z 02014KT 6SM -RA SCT011 BKN032 OVC075 14/11 A2989 RMK AO2 RAB03 SLP121 P0003 60005 70005 T01390111 10139 20133 $
Conditions at: KPNE (PHILADELPHIA/NE , PA, US) observed 1154 UTC 22 October 2014
Temperature: 13.9°C (57°F)
Dewpoint: 11.1°C (52°F) [RH = 83%]
Pressure (altimeter): 29.89 inches Hg (1012.3 mb)
[Sea-level pressure: 1012.1 mb]
Winds: from the NNE (20 degrees) at 16 MPH (14 knots; 7.3 m/s)
Visibility: 6 miles (10 km)
Ceiling: 3200 feet AGL
Clouds: scattered clouds at 1100 feet AGL
broken clouds at 3200 feet AGL
overcast cloud deck at 7500 feet AGL
Weather: -RA  (light rain)
SOME DATA ABOVE MAY BE INACCURATE!!!
"$" is an indication the sensor requires maintenance
Translated TAF for KPNE
Forecast for: KPNE (PHILADELPHIA/NE , PA, US)
TAF Text: KPNE 221136Z 2212/2312 03012G20KT 6SM -RA SCT007 OVC012
Forecast period: 1200 to 1400 UTC 22 October 2014
Forecast type: FROM: standard forecast or significant change
Winds: from the NNE (30 degrees) at 14 MPH (12 knots; 6.2 m/s)
gusting to 23 MPH (20 knots; 10.4 m/s)
Visibility: 6 miles (10 km)
Ceiling: 1200 feet AGL
Clouds: scattered clouds at 700 feet AGL
overcast cloud deck at 1200 feet AGL
Weather: -RA  (light rain)
TAF Text: FM221400 03012G20KT 4SM RA BR OVC012
Forecast period: 1400 to 2100 UTC 22 October 2014
Forecast type: FROM: standard forecast or significant change
Winds: from the NNE (30 degrees) at 14 MPH (12 knots; 6.2 m/s)
gusting to 23 MPH (20 knots; 10.4 m/s)
Visibility: 4 miles (6 km)
Ceiling: 1200 feet AGL
Clouds: overcast cloud deck at 1200 feet AGL
Weather: RA BR  (rain, mist)
TAF Text: FM222100 35016G25KT 6SM -RA BKN020
Forecast period: 2100 UTC 22 October 2014 to 0200 UTC 23 October 2014
Forecast type: FROM: standard forecast or significant change
Winds: from the N (350 degrees) at 18 MPH (16 knots; 8.3 m/s)
gusting to 29 MPH (25 knots; 13.0 m/s)
Visibility: 6 miles (10 km)
Ceiling: 2000 feet AGL
Clouds: broken clouds at 2000 feet AGL
Weather: -RA  (light rain)
TAF Text: FM230200 35017KT P6SM OVC035
Forecast period: 0200 to 0600 UTC 23 October 2014
Forecast type: FROM: standard forecast or significant change
Winds: from the N (350 degrees) at 20 MPH (17 knots; 8.8 m/s)
Visibility: 6 or more miles (10+ km)
Ceiling: 3500 feet AGL
Clouds: overcast cloud deck at 3500 feet AGL
Weather: no significant weather forecast for this period
TAF Text: FM230600 32015KT P6SM -RA OVC025
Forecast period: 0600 to 1200 UTC 23 October 2014
Forecast type: FROM: standard forecast or significant change
Winds: from the NW (320 degrees) at 17 MPH (15 knots; 7.8 m/s)
Visibility: 6 or more miles (10+ km)
Ceiling: 2500 feet AGL
Clouds: overcast cloud deck at 2500 feet AGL
Weather: -RA  (light rain)

Find All Airport Services Find A Hotel Find A Rental Car Find A Golf Course Find A Restaurant $100 Hamburger



FBO's on the Field
FBO Company Facility Photos Services Transportation Aviation Fuel Prices: Prices include tax
Catering Weather Repair Courtesy Rental Type 100LL JetA JetA+ MOGAS 8087
 
Atlantic Aviation

This FBO has not yet been rated
FS:Texaco
Last Updated: Oct-21
Login to update fuel prices
SS:
Contact Atlantic AviationMore FBO Information
 
North Philadelphia Jet Center

Currently rated 5 by 2 people
FS:Avfuel
Last Updated: Oct-21
Login to update fuel prices
SS:
Contact North Philadelphia Jet CenterMore FBO Information
 
Add another FBO Facility Photos Catering Weather Repair Courtesy Rental Type 100LL JetA JetA+ MOGAS 8087
Services Transportation Aviation Fuel Prices: Prices include tax


model-print
model-print
model-print
model-print